Startpagina
METAR-TAF:

METAR-TAF

Vliegvelden :

Bonriki International Airport

Tarawa, Kiribati

breedte: 01-21N, lengte: 172-55E, hoogte: 2 m

Actueel weer

Dit bericht is 59 minuten geleden gemaakt, om 12:00 UTC
Wind 12 kt uit het oosten
Temperatuur 27°C
Vochtigheid 89%
Druk 1010 hPa
Zicht 10 km of meer
Weinig wolken op 1600 ft, Cumulonimbus.
Weinig wolken op 1900 ft, Stapelwolken.
Gebroken wolken op 4000 ft
lichte regenbuien

METAR: NGTA 211200Z 08012KT 9999 -SHRA FEW016CB FEW019TCU BKN040 27/25 Q1010

Tijdstip: 02:59 (12:59 UTC)

Verwachting

Dit bericht is 1 uur en het 51 minuten geleden gemaakt, om 11:08 UTC
Verwachting geldig van 21 om 12 UTC tot 22 om 12 UTC
Wind 10 kt uit het oostnoordoosten
Zicht 10 km of meer
Verspreide wolken op 1800 ft
Gebroken wolken op 4000 ft
Tijdelijke
van 21 om 12 UTC tot 22 om 06 UTC
Zicht: 8000 m
Gebroken wolken op 1800 ft
regenbuien

TAF: NGTA 211108Z 2112/2212 06010KT 9999 SCT018 BKN040 TEMPO 2112/2206 8000 SHRA BKN018

Waarnemingen en weersverwachtingen van meer dan 4000 vliegvelden (METAR en TAF).

De beschikbare stations zijn de gele en rode punten op de kaart.

Ga met uw muis naar het station om de naam te zien.

Klik dan om waarnemingen en weersverwachtingen te zien.

kaart wijzigen: klik op de groene knoppen met een zwart kruis om in te zoomen, op de groene knop met een streepje om uit te zoomen of op de groene pijlen voor aangrenzende kaarten.


METAR-TAF: